Mackinaw River (Illinois), Congerville (05567500)

StateIllinoisLatestPoor (137 cfs)
RiverMackinaw RiverRatingObservedEstimated
Updated2020-07-13 19:45 (31 minutes ago)Flood - The river is flooding. Obstacles can be treacherous or deadly. The river should be avoided at this stage for casual trips and definitely for the inexperienced. Trips should be attempted only with protective gear and equipment.Flood(none)2127
Discharge137 cfs (median: 159 cfs)High - The river is high and potentially dangerous, especially for the young and / or inexperienced. Normal stream obstacles are sometimes difficult to navigate. Extended distances can be attempted, but canoe travel may not be advisable.High30001075
Height1.64 feetGood - Conditions are ideal for a canoe or kayak. Boats typically will drag on fewer than one-quarter of riffles, if at all, and portages are unnecessary or rare. Normal float lengths can be attempted without a problem.Good(none)581
TrendRising (falling over 24 hours)Low - River is low but can still be floated. Some riffles are okay but most come with significant dragging and might need a portage. Float lengths should be reduced to accommodate low flow, dragging, and portages.Low(none)421
USGSExternal icon USGS Site (External icon Google Maps)Poor - River is too low to float comfortably. Most or all riffles will drag or must be portaged and some obstacles (such as slick shelf rock) cause undue problems. Avoid the river at this stage for casual paddling trips.Poor(none)44

Trending Data

Plot Image

Trips for Mackinaw River (Illinois), Congerville (05567500)

DateStartEndDistanceConditionDischargeHeightFishingDetails
Click for details2008-06-05 Cemetery (1700N South Road) Dee Mac Road Bridge Total trip distance: 7.0 miles7.0 High 3940 8.95 None NoneNone Fillmore, Brent
Fillmore, Brian
Fillmore, Rebecca
Fillmore, Tina
Fillmore, Brent; Fillmore, Brian; Fillmore, Rebecca; Fillmore, Tina
No notes for this trip<i>No notes for this trip</i> USGS Gauge Data:
Congerville (05567500)
Discharge: 3940
Height: 8.95
<b>USGS Gauge Data:</b></br />Congerville (05567500)<br />Discharge: 3940<br />Height: 8.95
Source: FillmoreSource: Fillmore

A total of 1 rows are displayed.

Trip Summary for Mackinaw River (Illinois), Congerville (05567500)

Miles7
Trips1
People4
Dates1
Years1
Months1
Rows1
Sources1

Condition Descriptions

Fishing Conditions

Fish Species

Notes

Classic Trip List

The classic River Trips application is still available for use. It is updated with the new system using a data retrofit. It is no longer maintained. The original River Trips application is no longer updated (as of 1 Dec 2016) but can be checked for errors or for the condition of the data before it was converted to the new system.

Gauge Data Table

ObservationHeightDischargeMaximum
Discharge
Minimum
Discharge
Mean
Discharge
P05P10P20P25P50
(Median)
P75P80P90P95
2020-07-13 19:45 1.64 137 5240 (2015) 6 (1977) 418 10 31 66 82 159 359 414 1040 2470
2020-07-13 18:45 1.60 124 5240 (2015) 6 (1977) 418 10 31 66 82 159 359 414 1040 2470
2020-07-13 17:45 1.61 128 5240 (2015) 6 (1977) 418 10 31 66 82 159 359 414 1040 2470
2020-07-13 16:45 1.66 141 5240 (2015) 6 (1977) 418 10 31 66 82 159 359 414 1040 2470
2020-07-13 15:45 1.67 143 5240 (2015) 6 (1977) 418 10 31 66 82 159 359 414 1040 2470
2020-07-13 14:45 1.64 137 5240 (2015) 6 (1977) 418 10 31 66 82 159 359 414 1040 2470
2020-07-13 13:45 1.68 145 5240 (2015) 6 (1977) 418 10 31 66 82 159 359 414 1040 2470
2020-07-13 12:45 1.64 137 5240 (2015) 6 (1977) 418 10 31 66 82 159 359 414 1040 2470
2020-07-13 11:45 1.65 139 5240 (2015) 6 (1977) 418 10 31 66 82 159 359 414 1040 2470
2020-07-13 10:45 1.71 151 5240 (2015) 6 (1977) 418 10 31 66 82 159 359 414 1040 2470
2020-07-13 09:45 1.73 155 5240 (2015) 6 (1977) 418 10 31 66 82 159 359 414 1040 2470
2020-07-13 08:45 1.73 155 5240 (2015) 6 (1977) 418 10 31 66 82 159 359 414 1040 2470
2020-07-13 07:45 1.74 158 5240 (2015) 6 (1977) 418 10 31 66 82 159 359 414 1040 2470
2020-07-13 06:45 1.75 160 5240 (2015) 6 (1977) 418 10 31 66 82 159 359 414 1040 2470
2020-07-13 05:45 1.76 162 5240 (2015) 6 (1977) 418 10 31 66 82 159 359 414 1040 2470
2020-07-13 04:45 1.77 164 5240 (2015) 6 (1977) 418 10 31 66 82 159 359 414 1040 2470
2020-07-13 03:45 1.78 166 5240 (2015) 6 (1977) 418 10 31 66 82 159 359 414 1040 2470
2020-07-13 02:45 1.80 170 5240 (2015) 6 (1977) 418 10 31 66 82 159 359 414 1040 2470
2020-07-13 01:45 1.81 173 5240 (2015) 6 (1977) 418 10 31 66 82 159 359 414 1040 2470
2020-07-13 00:45 1.82 175 5240 (2015) 6 (1977) 418 10 31 66 82 159 359 414 1040 2470
2020-07-12 23:45 1.83 177 8640 (2015) 6 (1977) 484 9 30 75 90 162 382 414 800 1960
2020-07-12 22:45 1.85 182 8640 (2015) 6 (1977) 484 9 30 75 90 162 382 414 800 1960
2020-07-12 21:45 1.85 182 8640 (2015) 6 (1977) 484 9 30 75 90 162 382 414 800 1960
2020-07-12 20:45 1.88 188 8640 (2015) 6 (1977) 484 9 30 75 90 162 382 414 800 1960
2020-07-12 19:45 1.89 191 8640 (2015) 6 (1977) 484 9 30 75 90 162 382 414 800 1960
2020-07-12 18:45 1.90 193 8640 (2015) 6 (1977) 484 9 30 75 90 162 382 414 800 1960
2020-07-12 17:45 1.91 195 8640 (2015) 6 (1977) 484 9 30 75 90 162 382 414 800 1960
2020-07-12 16:45 1.92 198 8640 (2015) 6 (1977) 484 9 30 75 90 162 382 414 800 1960
2020-07-12 15:45 1.90 193 8640 (2015) 6 (1977) 484 9 30 75 90 162 382 414 800 1960
2020-07-12 14:45 1.89 191 8640 (2015) 6 (1977) 484 9 30 75 90 162 382 414 800 1960
2020-07-12 13:45 1.83 177 8640 (2015) 6 (1977) 484 9 30 75 90 162 382 414 800 1960
2020-07-12 12:45 1.77 164 8640 (2015) 6 (1977) 484 9 30 75 90 162 382 414 800 1960
2020-07-12 11:45 1.72 153 8640 (2015) 6 (1977) 484 9 30 75 90 162 382 414 800 1960
2020-07-12 10:45 1.68 145 8640 (2015) 6 (1977) 484 9 30 75 90 162 382 414 800 1960
2020-07-12 09:45 1.68 145 8640 (2015) 6 (1977) 484 9 30 75 90 162 382 414 800 1960
2020-07-12 08:45 1.67 143 8640 (2015) 6 (1977) 484 9 30 75 90 162 382 414 800 1960
2020-07-12 07:45 1.67 143 8640 (2015) 6 (1977) 484 9 30 75 90 162 382 414 800 1960
2020-07-12 06:45 1.68 145 8640 (2015) 6 (1977) 484 9 30 75 90 162 382 414 800 1960
2020-07-12 05:45 1.62 131 8640 (2015) 6 (1977) 484 9 30 75 90 162 382 414 800 1960
2020-07-12 04:45 1.60 124 8640 (2015) 6 (1977) 484 9 30 75 90 162 382 414 800 1960
2020-07-12 03:45 1.60 124 8640 (2015) 6 (1977) 484 9 30 75 90 162 382 414 800 1960
2020-07-12 02:45 1.59 121 8640 (2015) 6 (1977) 484 9 30 75 90 162 382 414 800 1960
2020-07-12 01:45 1.59 121 8640 (2015) 6 (1977) 484 9 30 75 90 162 382 414 800 1960
2020-07-12 00:45 1.60 124 8640 (2015) 6 (1977) 484 9 30 75 90 162 382 414 800 1960
2020-07-11 23:45 1.59 121 12200 (2015) 6 (1977) 646 10 31 80 96 182 450 500 862 2440
2020-07-11 22:45 1.57 115 12200 (2015) 6 (1977) 646 10 31 80 96 182 450 500 862 2440
2020-07-11 21:45 1.52 99 12200 (2015) 6 (1977) 646 10 31 80 96 182 450 500 862 2440
2020-07-11 20:45 1.55 108 12200 (2015) 6 (1977) 646 10 31 80 96 182 450 500 862 2440
2020-07-11 19:45 1.55 108 12200 (2015) 6 (1977) 646 10 31 80 96 182 450 500 862 2440
2020-07-11 18:45 1.55 108 12200 (2015) 6 (1977) 646 10 31 80 96 182 450 500 862 2440
2020-07-11 17:45 1.54 105 12200 (2015) 6 (1977) 646 10 31 80 96 182 450 500 862 2440
2020-07-11 16:45 1.55 108 12200 (2015) 6 (1977) 646 10 31 80 96 182 450 500 862 2440
2020-07-11 15:45 1.55 108 12200 (2015) 6 (1977) 646 10 31 80 96 182 450 500 862 2440
2020-07-11 14:45 1.56 111 12200 (2015) 6 (1977) 646 10 31 80 96 182 450 500 862 2440
2020-07-11 13:45 1.51 96 12200 (2015) 6 (1977) 646 10 31 80 96 182 450 500 862 2440
2020-07-11 12:45 1.56 111 12200 (2015) 6 (1977) 646 10 31 80 96 182 450 500 862 2440
2020-07-11 11:45 1.57 115 12200 (2015) 6 (1977) 646 10 31 80 96 182 450 500 862 2440
2020-07-11 10:45 1.53 102 12200 (2015) 6 (1977) 646 10 31 80 96 182 450 500 862 2440
2020-07-11 09:45 1.56 111 12200 (2015) 6 (1977) 646 10 31 80 96 182 450 500 862 2440
2020-07-11 08:45 1.56 111 12200 (2015) 6 (1977) 646 10 31 80 96 182 450 500 862 2440
2020-07-11 07:45 1.58 118 12200 (2015) 6 (1977) 646 10 31 80 96 182 450 500 862 2440
2020-07-11 06:45 1.59 121 12200 (2015) 6 (1977) 646 10 31 80 96 182 450 500 862 2440
2020-07-11 05:45 1.59 121 12200 (2015) 6 (1977) 646 10 31 80 96 182 450 500 862 2440
2020-07-11 04:45 1.60 124 12200 (2015) 6 (1977) 646 10 31 80 96 182 450 500 862 2440
2020-07-11 03:45 1.60 124 12200 (2015) 6 (1977) 646 10 31 80 96 182 450 500 862 2440
2020-07-11 02:45 1.61 128 12200 (2015) 6 (1977) 646 10 31 80 96 182 450 500 862 2440
2020-07-11 01:45 1.62 131 12200 (2015) 6 (1977) 646 10 31 80 96 182 450 500 862 2440
2020-07-11 00:45 1.63 135 12200 (2015) 6 (1977) 646 10 31 80 96 182 450 500 862 2440
2020-07-10 23:45 1.63 135 18100 (1951) 6 (1988) 705 11 33 88 99 197 384 449 705 2310
2020-07-10 22:45 1.63 135 18100 (1951) 6 (1988) 705 11 33 88 99 197 384 449 705 2310
2020-07-10 21:45 1.64 137 18100 (1951) 6 (1988) 705 11 33 88 99 197 384 449 705 2310
2020-07-10 20:45 1.63 135 18100 (1951) 6 (1988) 705 11 33 88 99 197 384 449 705 2310
2020-07-10 19:45 1.62 131 18100 (1951) 6 (1988) 705 11 33 88 99 197 384 449 705 2310
2020-07-10 18:45 1.60 124 18100 (1951) 6 (1988) 705 11 33 88 99 197 384 449 705 2310
2020-07-10 17:45 1.58 118 18100 (1951) 6 (1988) 705 11 33 88 99 197 384 449 705 2310
2020-07-10 16:45 1.53 102 18100 (1951) 6 (1988) 705 11 33 88 99 197 384 449 705 2310
2020-07-10 15:45 1.54 105 18100 (1951) 6 (1988) 705 11 33 88 99 197 384 449 705 2310
2020-07-10 14:45 1.53 102 18100 (1951) 6 (1988) 705 11 33 88 99 197 384 449 705 2310
2020-07-10 13:45 1.54 105 18100 (1951) 6 (1988) 705 11 33 88 99 197 384 449 705 2310
2020-07-10 12:45 1.56 111 18100 (1951) 6 (1988) 705 11 33 88 99 197 384 449 705 2310
2020-07-10 11:45 1.60 124 18100 (1951) 6 (1988) 705 11 33 88 99 197 384 449 705 2310
2020-07-10 10:45 1.57 115 18100 (1951) 6 (1988) 705 11 33 88 99 197 384 449 705 2310
2020-07-10 09:45 1.61 128 18100 (1951) 6 (1988) 705 11 33 88 99 197 384 449 705 2310
2020-07-10 08:45 1.61 128 18100 (1951) 6 (1988) 705 11 33 88 99 197 384 449 705 2310
2020-07-10 07:45 1.60 124 18100 (1951) 6 (1988) 705 11 33 88 99 197 384 449 705 2310
2020-07-10 06:45 1.58 118 18100 (1951) 6 (1988) 705 11 33 88 99 197 384 449 705 2310
2020-07-10 05:45 1.58 118 18100 (1951) 6 (1988) 705 11 33 88 99 197 384 449 705 2310
2020-07-10 04:45 1.58 118 18100 (1951) 6 (1988) 705 11 33 88 99 197 384 449 705 2310
2020-07-10 03:45 1.59 121 18100 (1951) 6 (1988) 705 11 33 88 99 197 384 449 705 2310
2020-07-10 02:45 1.60 124 18100 (1951) 6 (1988) 705 11 33 88 99 197 384 449 705 2310
2020-07-10 01:45 1.60 124 18100 (1951) 6 (1988) 705 11 33 88 99 197 384 449 705 2310
2020-07-10 00:45 1.61 128 18100 (1951) 6 (1988) 705 11 33 88 99 197 384 449 705 2310
2020-07-09 23:45 1.60 124 26300 (1951) 6 (1988) 693 14 37 73 97 202 396 497 734 1080
2020-07-09 22:45 1.61 128 26300 (1951) 6 (1988) 693 14 37 73 97 202 396 497 734 1080
2020-07-09 21:45 1.51 96 26300 (1951) 6 (1988) 693 14 37 73 97 202 396 497 734 1080
2020-07-09 20:45 1.51 96 26300 (1951) 6 (1988) 693 14 37 73 97 202 396 497 734 1080
2020-07-09 19:45 1.50 94 26300 (1951) 6 (1988) 693 14 37 73 97 202 396 497 734 1080
2020-07-09 18:45 1.49 91 26300 (1951) 6 (1988) 693 14 37 73 97 202 396 497 734 1080
2020-07-09 17:45 1.51 96 26300 (1951) 6 (1988) 693 14 37 73 97 202 396 497 734 1080
2020-07-09 16:45 1.50 94 26300 (1951) 6 (1988) 693 14 37 73 97 202 396 497 734 1080
2020-07-09 15:45 1.49 91 26300 (1951) 6 (1988) 693 14 37 73 97 202 396 497 734 1080
2020-07-09 14:45 1.51 96 26300 (1951) 6 (1988) 693 14 37 73 97 202 396 497 734 1080
2020-07-09 13:45 1.50 94 26300 (1951) 6 (1988) 693 14 37 73 97 202 396 497 734 1080
2020-07-09 12:45 1.50 94 26300 (1951) 6 (1988) 693 14 37 73 97 202 396 497 734 1080
2020-07-09 11:45 1.52 99 26300 (1951) 6 (1988) 693 14 37 73 97 202 396 497 734 1080
2020-07-09 10:45 1.53 102 26300 (1951) 6 (1988) 693 14 37 73 97 202 396 497 734 1080
2020-07-09 09:45 1.54 105 26300 (1951) 6 (1988) 693 14 37 73 97 202 396 497 734 1080
2020-07-09 08:45 1.53 102 26300 (1951) 6 (1988) 693 14 37 73 97 202 396 497 734 1080
2020-07-09 07:45 1.59 121 26300 (1951) 6 (1988) 693 14 37 73 97 202 396 497 734 1080
2020-07-09 06:45 1.60 124 26300 (1951) 6 (1988) 693 14 37 73 97 202 396 497 734 1080
2020-07-09 05:45 1.60 124 26300 (1951) 6 (1988) 693 14 37 73 97 202 396 497 734 1080
2020-07-09 04:45 1.60 124 26300 (1951) 6 (1988) 693 14 37 73 97 202 396 497 734 1080
2020-07-09 03:45 1.60 124 26300 (1951) 6 (1988) 693 14 37 73 97 202 396 497 734 1080
2020-07-09 02:45 1.61 128 26300 (1951) 6 (1988) 693 14 37 73 97 202 396 497 734 1080
2020-07-09 01:45 1.61 128 26300 (1951) 6 (1988) 693 14 37 73 97 202 396 497 734 1080
2020-07-09 00:45 1.61 128 26300 (1951) 6 (1988) 693 14 37 73 97 202 396 497 734 1080
2020-07-08 23:45 1.62 131 2790 (1953) 6 (1988) 341 17 41 82 108 222 418 521 785 1210
2020-07-08 22:45 1.63 135 2790 (1953) 6 (1988) 341 17 41 82 108 222 418 521 785 1210
2020-07-08 21:45 1.62 131 2790 (1953) 6 (1988) 341 17 41 82 108 222 418 521 785 1210
2020-07-08 20:45 1.63 135 2790 (1953) 6 (1988) 341 17 41 82 108 222 418 521 785 1210
2020-07-08 19:45 1.64 137 2790 (1953) 6 (1988) 341 17 41 82 108 222 418 521 785 1210
2020-07-08 18:45 1.66 141 2790 (1953) 6 (1988) 341 17 41 82 108 222 418 521 785 1210
2020-07-08 17:45 1.61 128 2790 (1953) 6 (1988) 341 17 41 82 108 222 418 521 785 1210
2020-07-08 16:45 1.66 141 2790 (1953) 6 (1988) 341 17 41 82 108 222 418 521 785 1210
2020-07-08 15:45 1.68 145 2790 (1953) 6 (1988) 341 17 41 82 108 222 418 521 785 1210
2020-07-08 14:45 1.66 141 2790 (1953) 6 (1988) 341 17 41 82 108 222 418 521 785 1210
2020-07-08 13:45 1.63 135 2790 (1953) 6 (1988) 341 17 41 82 108 222 418 521 785 1210
2020-07-08 12:45 1.61 128 2790 (1953) 6 (1988) 341 17 41 82 108 222 418 521 785 1210
2020-07-08 11:45 1.60 124 2790 (1953) 6 (1988) 341 17 41 82 108 222 418 521 785 1210
2020-07-08 10:45 1.59 121 2790 (1953) 6 (1988) 341 17 41 82 108 222 418 521 785 1210
2020-07-08 09:45 1.60 124 2790 (1953) 6 (1988) 341 17 41 82 108 222 418 521 785 1210
2020-07-08 08:45 1.60 124 2790 (1953) 6 (1988) 341 17 41 82 108 222 418 521 785 1210
2020-07-08 07:45 1.61 128 2790 (1953) 6 (1988) 341 17 41 82 108 222 418 521 785 1210
2020-07-08 06:45 1.62 131 2790 (1953) 6 (1988) 341 17 41 82 108 222 418 521 785 1210
2020-07-08 05:45 1.63 135 2790 (1953) 6 (1988) 341 17 41 82 108 222 418 521 785 1210
2020-07-08 04:45 1.62 131 2790 (1953) 6 (1988) 341 17 41 82 108 222 418 521 785 1210
2020-07-08 03:45 1.60 124 2790 (1953) 6 (1988) 341 17 41 82 108 222 418 521 785 1210
2020-07-08 02:45 1.59 121 2790 (1953) 6 (1988) 341 17 41 82 108 222 418 521 785 1210
2020-07-08 01:45 1.59 121 2790 (1953) 6 (1988) 341 17 41 82 108 222 418 521 785 1210
2020-07-08 00:45 1.60 124 2790 (1953) 6 (1988) 341 17 41 82 108 222 418 521 785 1210
2020-07-07 23:45 1.61 128 4740 (1953) 7 (1988) 362 17 44 81 112 214 432 505 678 921
2020-07-07 22:45 1.61 128 4740 (1953) 7 (1988) 362 17 44 81 112 214 432 505 678 921
2020-07-07 21:45 1.62 131 4740 (1953) 7 (1988) 362 17 44 81 112 214 432 505 678 921
2020-07-07 20:45 1.61 128 4740 (1953) 7 (1988) 362 17 44 81 112 214 432 505 678 921
2020-07-07 19:45 1.60 124 4740 (1953) 7 (1988) 362 17 44 81 112 214 432 505 678 921
2020-07-07 18:45 1.59 121 4740 (1953) 7 (1988) 362 17 44 81 112 214 432 505 678 921
2020-07-07 17:45 1.58 118 4740 (1953) 7 (1988) 362 17 44 81 112 214 432 505 678 921
2020-07-07 16:45 1.59 121 4740 (1953) 7 (1988) 362 17 44 81 112 214 432 505 678 921
2020-07-07 15:45 1.60 124 4740 (1953) 7 (1988) 362 17 44 81 112 214 432 505 678 921
2020-07-07 14:45 1.59 121 4740 (1953) 7 (1988) 362 17 44 81 112 214 432 505 678 921
2020-07-07 13:45 1.60 124 4740 (1953) 7 (1988) 362 17 44 81 112 214 432 505 678 921
2020-07-07 12:45 1.60 124 4740 (1953) 7 (1988) 362 17 44 81 112 214 432 505 678 921
2020-07-07 11:45 1.60 124 4740 (1953) 7 (1988) 362 17 44 81 112 214 432 505 678 921
2020-07-07 10:45 1.59 121 4740 (1953) 7 (1988) 362 17 44 81 112 214 432 505 678 921
2020-07-07 09:45 1.60 124 4740 (1953) 7 (1988) 362 17 44 81 112 214 432 505 678 921
2020-07-07 08:45 1.60 124 4740 (1953) 7 (1988) 362 17 44 81 112 214 432 505 678 921
2020-07-07 07:45 1.60 124 4740 (1953) 7 (1988) 362 17 44 81 112 214 432 505 678 921
2020-07-07 06:45 1.60 124 4740 (1953) 7 (1988) 362 17 44 81 112 214 432 505 678 921
2020-07-07 05:45 1.60 124 4740 (1953) 7 (1988) 362 17 44 81 112 214 432 505 678 921
2020-07-07 04:45 1.59 121 4740 (1953) 7 (1988) 362 17 44 81 112 214 432 505 678 921
2020-07-07 03:45 1.60 124 4740 (1953) 7 (1988) 362 17 44 81 112 214 432 505 678 921
2020-07-07 01:45 1.61 128 4740 (1953) 7 (1988) 362 17 44 81 112 214 432 505 678 921
2020-07-07 00:45 1.61 128 4740 (1953) 7 (1988) 362 17 44 81 112 214 432 505 678 921
2020-07-06 23:45 1.61 128 5950 (1953) 8 (1963) 394 17 47 72 107 222 460 536 757 934
2020-07-06 22:45 1.62 131 5950 (1953) 8 (1963) 394 17 47 72 107 222 460 536 757 934
2020-07-06 21:45 1.61 128 5950 (1953) 8 (1963) 394 17 47 72 107 222 460 536 757 934
2020-07-06 20:45 1.62 131 5950 (1953) 8 (1963) 394 17 47 72 107 222 460 536 757 934
2020-07-06 19:45 1.63 135 5950 (1953) 8 (1963) 394 17 47 72 107 222 460 536 757 934
2020-07-06 18:45 1.63 135 5950 (1953) 8 (1963) 394 17 47 72 107 222 460 536 757 934
2020-07-06 17:45 1.66 239 5950 (1953) 8 (1963) 394 17 47 72 107 222 460 536 757 934
2020-07-06 16:45 1.66 239 5950 (1953) 8 (1963) 394 17 47 72 107 222 460 536 757 934
2020-07-06 15:45 1.66 239 5950 (1953) 8 (1963) 394 17 47 72 107 222 460 536 757 934
2020-07-06 14:45 1.64 234 5950 (1953) 8 (1963) 394 17 47 72 107 222 460 536 757 934
2020-07-06 13:45 1.66 239 5950 (1953) 8 (1963) 394 17 47 72 107 222 460 536 757 934
2020-07-06 12:45 1.66 239 5950 (1953) 8 (1963) 394 17 47 72 107 222 460 536 757 934
2020-07-06 11:45 1.64 234 5950 (1953) 8 (1963) 394 17 47 72 107 222 460 536 757 934
2020-07-06 10:45 1.66 239 5950 (1953) 8 (1963) 394 17 47 72 107 222 460 536 757 934
2020-07-06 09:45 1.66 239 5950 (1953) 8 (1963) 394 17 47 72 107 222 460 536 757 934
2020-07-06 08:45 1.66 239 5950 (1953) 8 (1963) 394 17 47 72 107 222 460 536 757 934
2020-07-06 07:45 1.66 239 5950 (1953) 8 (1963) 394 17 47 72 107 222 460 536 757 934
2020-07-06 06:45 1.66 239 5950 (1953) 8 (1963) 394 17 47 72 107 222 460 536 757 934
2020-07-06 05:45 1.66 239 5950 (1953) 8 (1963) 394 17 47 72 107 222 460 536 757 934
2020-07-06 04:45 1.66 239 5950 (1953) 8 (1963) 394 17 47 72 107 222 460 536 757 934
2020-07-06 03:45 1.66 239 5950 (1953) 8 (1963) 394 17 47 72 107 222 460 536 757 934
2020-07-06 02:45 1.67 242 5950 (1953) 8 (1963) 394 17 47 72 107 222 460 536 757 934
2020-07-06 01:45 1.67 242 5950 (1953) 8 (1963) 394 17 47 72 107 222 460 536 757 934
2020-07-06 00:45 1.67 242 5950 (1953) 8 (1963) 394 17 47 72 107 222 460 536 757 934

A total of 187 rows are displayed for years 1945 through 2019.